createdAt,value
2022-10-21T00:00:30.278Z,73.35
2022-10-21T00:02:56.852Z,73.43
2022-10-21T00:05:23.517Z,73.09
2022-10-21T00:07:50.200Z,73.08
2022-10-21T00:10:16.861Z,72.68
2022-10-21T00:12:43.411Z,72.94
2022-10-21T00:15:10.780Z,73.16
2022-10-21T00:17:39.048Z,72.68
2022-10-21T00:20:07.746Z,72.64
2022-10-21T00:22:34.399Z,72.66
2022-10-21T00:25:01.025Z,72.54
2022-10-21T00:27:27.625Z,72.73
2022-10-21T00:29:54.253Z,72.67
2022-10-21T00:32:21.075Z,72.85
2022-10-21T00:34:48.478Z,72.68
2022-10-21T00:37:15.440Z,72.85
2022-10-21T00:39:42.075Z,72.67
2022-10-21T00:42:15.885Z,72.80
2022-10-21T00:44:42.929Z,72.77
2022-10-21T00:47:22.064Z,73.17
2022-10-21T00:49:54.035Z,73.03
2022-10-21T00:52:23.405Z,72.95
2022-10-21T00:54:52.891Z,72.89
2022-10-21T00:57:21.728Z,72.82
2022-10-21T00:59:56.376Z,72.93
2022-10-21T01:02:23.400Z,73.01
2022-10-21T01:04:56.467Z,73.10
2022-10-21T01:07:23.387Z,73.34
2022-10-21T01:09:49.945Z,73.20
2022-10-21T01:12:33.218Z,73.17
2022-10-21T01:15:15.481Z,73.12
2022-10-21T01:17:45.817Z,73.15
2022-10-21T01:20:27.640Z,73.33
2022-10-21T01:23:04.066Z,73.35
2022-10-21T01:26:08.296Z,73.52
2022-10-21T01:28:55.312Z,73.75
2022-10-21T01:31:47.086Z,73.64
2022-10-21T01:34:33.932Z,73.69
2022-10-21T01:37:11.391Z,73.93
2022-10-21T01:39:52.090Z,73.78
2022-10-21T01:42:31.927Z,73.96
2022-10-21T01:45:20.330Z,73.89
2022-10-21T01:47:51.986Z,73.69
2022-10-21T01:50:33.470Z,73.89
2022-10-21T01:53:04.997Z,73.76
2022-10-21T01:55:32.554Z,73.97
2022-10-21T01:58:03.580Z,73.73
2022-10-21T02:00:31.117Z,73.78
2022-10-21T02:02:59.438Z,73.74
2022-10-21T02:05:30.204Z,73.66
2022-10-21T02:07:56.805Z,73.84
2022-10-21T02:10:26.952Z,74.08
2022-10-21T02:12:56.842Z,73.98
2022-10-21T02:15:25.752Z,73.96
2022-10-21T02:17:59.581Z,73.86
2022-10-21T02:20:31.893Z,73.73
2022-10-21T02:22:58.712Z,73.95
2022-10-21T02:25:32.493Z,73.88
2022-10-21T02:27:59.266Z,73.86
2022-10-21T02:30:27.809Z,73.82
2022-10-21T02:33:01.275Z,73.74
2022-10-21T02:35:59.756Z,73.69
2022-10-21T02:38:38.389Z,73.39
2022-10-21T02:41:10.726Z,73.57
2022-10-21T02:43:47.807Z,73.67
2022-10-21T02:46:15.124Z,74.00
2022-10-21T02:48:46.650Z,73.52
2022-10-21T02:51:14.511Z,73.63
2022-10-21T02:53:41.878Z,73.57
2022-10-21T02:56:09.130Z,73.86
2022-10-21T02:58:35.843Z,73.62
2022-10-21T03:01:02.493Z,73.68
2022-10-21T03:03:30.026Z,74.01
2022-10-21T03:05:57.331Z,73.67
2022-10-21T03:08:23.896Z,73.67
2022-10-21T03:10:53.145Z,73.85
2022-10-21T03:13:21.106Z,74.01
2022-10-21T03:15:49.094Z,74.54
2022-10-21T03:18:16.336Z,74.48
2022-10-21T03:20:45.568Z,75.05
2022-10-21T03:23:12.160Z,75.40
2022-10-21T03:25:38.834Z,75.85
2022-10-21T03:28:05.381Z,76.35
2022-10-21T03:30:31.998Z,76.29
2022-10-21T03:32:58.585Z,77.04
2022-10-21T03:35:25.252Z,77.10
2022-10-21T03:37:51.874Z,77.53
2022-10-21T03:40:18.541Z,77.38
2022-10-21T03:42:45.235Z,77.80
2022-10-21T03:45:12.349Z,77.89
2022-10-21T03:47:38.901Z,78.02
2022-10-21T03:50:10.177Z,78.17
2022-10-21T03:52:40.059Z,78.07
2022-10-21T03:55:07.807Z,78.26
2022-10-21T03:57:34.329Z,78.19
2022-10-21T04:00:00.946Z,78.48
2022-10-21T04:02:27.604Z,78.69
2022-10-21T04:04:54.178Z,78.89
2022-10-21T04:07:20.732Z,78.78
2022-10-21T04:09:50.095Z,78.75
2022-10-21T04:12:16.671Z,78.78
2022-10-21T04:14:44.198Z,79.13
2022-10-21T04:17:10.841Z,79.18
2022-10-21T04:19:37.377Z,79.22
2022-10-21T04:22:04.046Z,79.06
2022-10-21T04:24:30.657Z,79.35
2022-10-21T04:26:57.320Z,79.52
2022-10-21T04:29:23.877Z,79.46
2022-10-21T04:31:50.592Z,79.43
2022-10-21T04:34:17.236Z,79.74
2022-10-21T04:36:45.740Z,79.71
2022-10-21T04:39:12.393Z,79.53
2022-10-21T04:41:39.122Z,79.52
2022-10-21T04:44:06.599Z,79.84
2022-10-21T04:46:33.493Z,79.83
2022-10-21T04:49:00.095Z,79.95
2022-10-21T04:51:26.636Z,79.53
2022-10-21T04:53:53.257Z,79.76
2022-10-21T04:56:19.961Z,80.01
2022-10-21T04:58:46.743Z,80.05
2022-10-21T05:01:13.417Z,80.20
2022-10-21T05:03:40.187Z,80.10
2022-10-21T05:06:06.882Z,80.23
2022-10-21T05:08:33.652Z,80.38
2022-10-21T05:11:01.363Z,79.92
2022-10-21T05:13:29.117Z,80.14
2022-10-21T05:16:02.758Z,80.22
2022-10-21T05:18:30.308Z,80.08
2022-10-21T05:20:57.670Z,80.20
2022-10-21T05:23:25.974Z,80.20
2022-10-21T05:25:55.617Z,80.06
2022-10-21T05:28:22.896Z,80.02
2022-10-21T05:30:49.632Z,80.13
2022-10-21T05:33:16.649Z,80.02
2022-10-21T05:35:43.233Z,80.04
2022-10-21T05:38:10.078Z,79.59
2022-10-21T05:40:36.803Z,79.99
2022-10-21T05:43:03.522Z,80.00
2022-10-21T05:45:30.176Z,80.02
2022-10-21T05:47:56.837Z,80.05
2022-10-21T05:50:23.557Z,80.22
2022-10-21T05:52:58.529Z,80.25
2022-10-21T05:55:25.645Z,80.11
2022-10-21T06:00:18.853Z,80.11
2022-10-21T06:02:47.524Z,80.24
2022-10-21T06:05:16.918Z,80.21
2022-10-21T06:07:43.514Z,80.09
2022-10-21T06:10:12.102Z,80.33
2022-10-21T06:12:39.181Z,80.35
2022-10-21T06:15:06.160Z,80.44
2022-10-21T06:17:32.761Z,80.25
2022-10-21T06:19:59.583Z,80.18
2022-10-21T06:22:26.139Z,80.50
2022-10-21T06:24:52.830Z,80.38
2022-10-21T06:27:20.160Z,80.29
2022-10-21T06:29:46.866Z,80.37
2022-10-21T06:32:13.503Z,80.07
2022-10-21T06:34:40.095Z,79.78
2022-10-21T06:37:06.618Z,79.86
2022-10-21T06:39:33.232Z,79.62
2022-10-21T06:41:59.984Z,79.79
2022-10-21T06:44:55.494Z,79.57
2022-10-21T06:47:24.727Z,79.49
2022-10-21T06:49:51.325Z,79.32
2022-10-21T06:52:17.979Z,78.98
2022-10-21T06:54:44.743Z,79.10
2022-10-21T06:57:11.450Z,78.90
2022-10-21T06:59:38.941Z,78.70
2022-10-21T07:02:05.632Z,78.44
2022-10-21T07:04:32.244Z,78.75
2022-10-21T07:07:01.923Z,78.43
2022-10-21T07:09:28.827Z,78.57
2022-10-21T07:11:55.533Z,78.60
2022-10-21T07:14:22.197Z,78.65
2022-10-21T07:16:49.173Z,78.77
2022-10-21T07:19:15.805Z,78.74
2022-10-21T07:21:42.620Z,78.75
2022-10-21T07:24:10.027Z,78.69
2022-10-21T07:26:36.780Z,78.82
2022-10-21T07:29:03.596Z,78.93
2022-10-21T07:31:33.473Z,79.09
2022-10-21T07:34:01.807Z,79.17
2022-10-21T07:36:30.747Z,79.00
2022-10-21T07:39:02.601Z,78.67
2022-10-21T07:41:37.817Z,78.66
2022-10-21T07:44:06.053Z,78.94
2022-10-21T07:46:33.066Z,78.74
2022-10-21T07:48:59.676Z,78.87
2022-10-21T07:51:28.581Z,78.62
2022-10-21T07:53:56.761Z,78.87
2022-10-21T07:56:29.371Z,78.56
2022-10-21T07:58:56.286Z,78.59
2022-10-21T08:01:23.486Z,78.76
2022-10-21T08:03:53.327Z,78.63
2022-10-21T08:06:20.073Z,78.61
2022-10-21T08:08:46.789Z,78.22
2022-10-21T08:11:28.802Z,77.99
2022-10-21T08:13:58.992Z,78.09
2022-10-21T08:16:26.710Z,78.35
2022-10-21T08:18:54.235Z,78.02
2022-10-21T08:21:21.508Z,78.09
2022-10-21T08:23:48.172Z,78.82
2022-10-21T08:26:15.989Z,78.46
2022-10-21T08:28:43.325Z,78.63
2022-10-21T08:31:15.787Z,78.51
2022-10-21T08:33:42.989Z,78.42
2022-10-21T08:36:13.018Z,78.15
2022-10-21T08:38:39.719Z,78.09
2022-10-21T08:41:27.071Z,78.27
2022-10-21T08:43:59.123Z,78.19
2022-10-21T08:46:34.482Z,77.96
2022-10-21T08:49:07.304Z,78.00
2022-10-21T08:51:41.155Z,78.50
2022-10-21T08:54:20.344Z,78.53
2022-10-21T08:56:49.328Z,78.29
2022-10-21T08:59:21.569Z,77.73
2022-10-21T09:01:59.253Z,77.58
2022-10-21T09:04:31.761Z,78.07
2022-10-21T09:07:21.237Z,77.71
2022-10-21T09:10:00.228Z,77.55
2022-10-21T09:12:40.897Z,78.15
2022-10-21T09:15:27.767Z,77.61
2022-10-21T09:18:12.736Z,77.57
2022-10-21T09:20:55.909Z,77.81
2022-10-21T09:24:02.757Z,78.12
2022-10-21T09:26:36.759Z,78.35
2022-10-21T09:29:20.598Z,78.00
2022-10-21T09:31:54.367Z,77.82
2022-10-21T09:34:40.679Z,78.04
2022-10-21T09:37:19.702Z,77.90
2022-10-21T09:39:55.638Z,78.04
2022-10-21T09:42:45.945Z,78.32
2022-10-21T09:45:36.181Z,78.57
2022-10-21T09:48:18.111Z,78.67
2022-10-21T09:51:00.996Z,79.00
2022-10-21T09:53:33.999Z,79.09
2022-10-21T09:56:25.839Z,78.85
2022-10-21T09:59:09.799Z,78.95
2022-10-21T10:01:37.819Z,78.84
2022-10-21T10:04:23.551Z,78.73
2022-10-21T10:06:50.842Z,78.99
2022-10-21T10:09:27.682Z,78.97
2022-10-21T10:12:03.066Z,78.71
2022-10-21T10:14:57.239Z,78.98
2022-10-21T10:17:23.984Z,79.31
2022-10-21T10:20:05.788Z,79.30
2022-10-21T10:22:47.824Z,79.70
2022-10-21T10:25:24.295Z,79.86
2022-10-21T10:28:13.170Z,79.68
2022-10-21T10:30:43.414Z,79.58
2022-10-21T10:33:26.936Z,79.46
2022-10-21T10:36:00.141Z,79.73
2022-10-21T10:38:35.700Z,79.85
2022-10-21T10:41:16.566Z,79.62
2022-10-21T10:43:53.501Z,79.60
2022-10-21T10:46:25.086Z,79.47
2022-10-21T10:48:53.886Z,79.38
2022-10-21T10:51:26.412Z,79.84
2022-10-21T10:54:17.927Z,79.34
2022-10-21T10:57:24.009Z,79.15
2022-10-21T11:00:14.032Z,79.35
2022-10-21T11:02:51.046Z,79.37
2022-10-21T11:05:23.869Z,79.05
2022-10-21T11:07:52.905Z,78.71
2022-10-21T11:10:45.945Z,78.79
2022-10-21T11:13:19.283Z,78.32
2022-10-21T11:16:13.430Z,77.93
2022-10-21T11:18:49.611Z,77.69
2022-10-21T11:21:53.226Z,77.76
2022-10-21T11:24:40.196Z,77.53
2022-10-21T11:27:18.215Z,77.48
2022-10-21T11:30:20.241Z,77.47
2022-10-21T11:33:24.391Z,78.33
2022-10-21T11:36:08.392Z,78.04
2022-10-21T11:38:46.310Z,78.06
2022-10-21T11:41:33.912Z,78.02
2022-10-21T11:44:29.177Z,78.19
2022-10-21T11:47:05.603Z,78.32
2022-10-21T11:49:37.177Z,78.55
2022-10-21T11:52:30.825Z,77.91
2022-10-21T11:55:09.362Z,78.00
2022-10-21T11:58:15.762Z,77.88
2022-10-21T12:01:01.246Z,78.18
2022-10-21T12:03:47.316Z,77.99
2022-10-21T12:06:34.630Z,77.82
2022-10-21T12:09:26.534Z,77.62
2022-10-21T12:12:01.118Z,77.54
2022-10-21T12:14:37.516Z,77.65
2022-10-21T12:17:10.592Z,77.74
2022-10-21T12:19:37.570Z,77.70
2022-10-21T12:22:04.757Z,77.66
2022-10-21T12:24:31.266Z,77.90
2022-10-21T12:27:31.964Z,77.25
2022-10-21T12:30:23.393Z,77.01
2022-10-21T12:33:06.591Z,77.07
2022-10-21T12:35:58.833Z,76.75
2022-10-21T12:38:56.411Z,76.70
2022-10-21T12:41:43.342Z,76.87
2022-10-21T12:44:23.353Z,76.58
2022-10-21T12:46:53.902Z,76.54
2022-10-21T12:49:27.887Z,76.04
2022-10-21T12:52:02.453Z,75.81
2022-10-21T12:54:34.506Z,75.65
2022-10-21T12:57:06.280Z,75.39
2022-10-21T12:59:42.081Z,75.56
2022-10-21T13:02:23.346Z,75.70
2022-10-21T13:04:55.671Z,75.51
2022-10-21T13:07:32.505Z,75.54
2022-10-21T13:09:59.206Z,75.01
2022-10-21T13:12:27.716Z,75.60
2022-10-21T13:15:23.838Z,75.29
2022-10-21T13:17:57.747Z,75.77
2022-10-21T13:20:24.749Z,75.83
2022-10-21T13:23:14.896Z,75.79
2022-10-21T13:25:41.640Z,76.04
2022-10-21T13:28:14.089Z,75.76
2022-10-21T13:30:56.368Z,75.53
2022-10-21T13:33:26.078Z,75.69
2022-10-21T13:35:58.905Z,76.29
2022-10-21T13:38:31.827Z,76.09
2022-10-21T13:41:05.030Z,76.00
2022-10-21T13:43:48.122Z,76.57
2022-10-21T13:46:18.504Z,76.49
2022-10-21T13:48:48.223Z,76.47
2022-10-21T13:51:27.560Z,76.50
2022-10-21T13:54:14.946Z,76.77
2022-10-21T13:56:42.301Z,77.32
2022-10-21T13:59:25.553Z,77.37
2022-10-21T14:01:55.012Z,77.94
2022-10-21T14:04:29.892Z,78.07
2022-10-21T14:07:05.912Z,78.74
2022-10-21T14:09:39.186Z,79.03
2022-10-21T14:12:10.432Z,79.13
2022-10-21T14:14:39.323Z,79.06
2022-10-21T14:17:09.289Z,79.62
2022-10-21T14:19:38.650Z,79.83
2022-10-21T14:24:37.517Z,79.97
2022-10-21T14:27:08.760Z,80.50
2022-10-21T14:29:36.335Z,80.91
2022-10-21T14:32:04.435Z,80.77
2022-10-21T14:34:36.202Z,80.83
2022-10-21T14:37:20.154Z,80.85
2022-10-21T14:39:46.847Z,81.24
2022-10-21T14:42:17.342Z,81.80
2022-10-21T14:44:45.496Z,81.82
2022-10-21T14:47:18.954Z,81.81
2022-10-21T14:49:48.876Z,81.88
2022-10-21T14:52:27.453Z,82.40
2022-10-21T14:55:01.115Z,82.02
2022-10-21T14:57:53.486Z,81.93
2022-10-21T15:00:42.999Z,82.04
2022-10-21T15:03:10.877Z,82.30
2022-10-21T15:05:48.556Z,82.58
2022-10-21T15:08:15.906Z,82.42
2022-10-21T15:10:43.488Z,82.71
2022-10-21T15:13:18.512Z,82.57
2022-10-21T15:15:53.963Z,82.76
2022-10-21T15:18:39.282Z,83.14
2022-10-21T15:21:33.863Z,82.87
2022-10-21T15:24:01.021Z,83.24
2022-10-21T15:26:40.671Z,82.79
2022-10-21T15:29:21.404Z,83.15
2022-10-21T15:31:48.180Z,82.87
2022-10-21T15:34:16.574Z,82.83
2022-10-21T15:36:44.120Z,82.96
2022-10-21T15:39:11.826Z,83.05
2022-10-21T15:41:39.263Z,82.70
2022-10-21T15:44:40.719Z,83.09
2022-10-21T15:47:11.307Z,83.28
2022-10-21T15:49:41.440Z,83.09
2022-10-21T15:52:08.723Z,83.21
2022-10-21T15:54:35.535Z,82.91
2022-10-21T15:57:02.992Z,83.02
2022-10-21T15:59:33.139Z,82.95
2022-10-21T16:02:00.673Z,82.88
2022-10-21T16:04:27.594Z,82.86
2022-10-21T16:06:54.967Z,82.77
2022-10-21T16:09:29.317Z,82.64
2022-10-21T16:12:00.331Z,82.43
2022-10-21T16:14:30.019Z,82.23
2022-10-21T16:16:58.455Z,82.26
2022-10-21T16:19:25.139Z,82.42
2022-10-21T16:21:51.792Z,82.25
2022-10-21T16:24:18.616Z,81.94
2022-10-21T16:26:47.210Z,81.80
2022-10-21T16:29:24.957Z,81.70
2022-10-21T16:31:52.306Z,81.67
2022-10-21T16:34:19.315Z,81.45
2022-10-21T16:36:48.603Z,81.28
2022-10-21T16:39:18.388Z,81.37
2022-10-21T16:41:45.063Z,81.37
2022-10-21T16:44:11.794Z,81.26
2022-10-21T16:46:49.071Z,81.38
2022-10-21T16:49:20.864Z,80.90
2022-10-21T16:51:47.564Z,81.12
2022-10-21T16:54:14.819Z,81.16
2022-10-21T16:56:41.550Z,81.09
2022-10-21T16:59:08.232Z,81.00
2022-10-21T17:01:35.088Z,80.89
2022-10-21T17:04:01.687Z,80.68
2022-10-21T17:06:28.372Z,81.19
2022-10-21T17:08:55.816Z,80.84
2022-10-21T17:11:32.720Z,80.91
2022-10-21T17:14:00.827Z,81.06
2022-10-21T17:16:27.509Z,81.27
2022-10-21T17:18:56.950Z,81.00
2022-10-21T17:21:26.539Z,81.13
2022-10-21T17:23:54.288Z,80.68
2022-10-21T17:26:21.352Z,80.31
2022-10-21T17:28:48.210Z,80.44
2022-10-21T17:31:23.281Z,80.55
2022-10-21T17:33:51.542Z,80.26
2022-10-21T17:36:19.166Z,80.19
2022-10-21T17:38:46.865Z,80.28
2022-10-21T17:41:15.967Z,80.36
2022-10-21T17:43:42.748Z,80.51
2022-10-21T17:46:17.024Z,80.24
2022-10-21T17:48:43.681Z,80.45
2022-10-21T17:51:10.537Z,80.37
2022-10-21T17:53:37.109Z,80.08
2022-10-21T17:56:07.190Z,80.29
2022-10-21T17:58:34.916Z,80.09
2022-10-21T18:01:07.968Z,79.92
2022-10-21T18:03:35.308Z,80.01
2022-10-21T18:06:05.725Z,79.64
2022-10-21T18:08:32.658Z,79.91
2022-10-21T18:11:00.117Z,79.09
2022-10-21T18:13:29.207Z,79.13
2022-10-21T18:16:01.619Z,78.76
2022-10-21T18:18:28.286Z,79.08
2022-10-21T18:20:59.616Z,79.08
2022-10-21T18:23:26.405Z,78.91
2022-10-21T18:25:53.054Z,79.35
2022-10-21T18:28:19.682Z,79.17
2022-10-21T18:30:46.420Z,79.11
2022-10-21T18:33:13.471Z,78.91
2022-10-21T18:35:43.120Z,78.99
2022-10-21T18:38:10.562Z,78.97
2022-10-21T18:40:47.069Z,78.63
2022-10-21T18:43:23.239Z,78.74
2022-10-21T18:45:49.889Z,79.00
2022-10-21T18:48:16.550Z,79.39
2022-10-21T18:50:43.257Z,78.87
2022-10-21T18:53:10.018Z,78.68
2022-10-21T18:55:39.703Z,78.80
2022-10-21T18:58:06.236Z,79.00
2022-10-21T19:00:32.792Z,79.24
2022-10-21T19:02:59.350Z,79.02
2022-10-21T19:05:26.027Z,79.16
2022-10-21T19:07:53.912Z,78.72
2022-10-21T19:10:20.479Z,78.55
2022-10-21T19:12:47.654Z,78.95
2022-10-21T19:15:14.406Z,78.93
2022-10-21T19:17:41.989Z,79.13
2022-10-21T19:20:09.093Z,78.81
2022-10-21T19:22:35.798Z,78.89
2022-10-21T19:25:02.497Z,78.97
2022-10-21T19:27:29.142Z,78.95
2022-10-21T19:29:55.719Z,79.10
2022-10-21T19:32:22.244Z,79.30
2022-10-21T19:34:48.835Z,78.86
2022-10-21T19:37:15.458Z,79.42
2022-10-21T19:39:50.957Z,79.05
2022-10-21T19:42:17.669Z,79.01
2022-10-21T19:44:45.777Z,79.09
2022-10-21T19:47:15.586Z,79.21
2022-10-21T19:49:42.225Z,79.33
2022-10-21T19:52:08.790Z,79.05
2022-10-21T19:54:35.448Z,79.13
2022-10-21T19:57:02.205Z,79.04
2022-10-21T19:59:28.866Z,78.80
2022-10-21T20:01:55.482Z,79.01
2022-10-21T20:04:23.197Z,78.95
2022-10-21T20:06:49.854Z,78.79
2022-10-21T20:09:16.465Z,78.99
2022-10-21T20:11:43.295Z,79.12
2022-10-21T20:14:12.600Z,79.09
2022-10-21T20:16:42.196Z,78.95
2022-10-21T20:19:10.423Z,78.95
2022-10-21T20:21:37.431Z,79.02
2022-10-21T20:24:04.499Z,78.63
2022-10-21T20:26:31.117Z,79.05
2022-10-21T20:29:00.522Z,79.11
2022-10-21T20:31:28.034Z,79.30
2022-10-21T20:33:54.826Z,79.44
2022-10-21T20:36:24.727Z,79.11
2022-10-21T20:38:52.947Z,79.13
2022-10-21T20:41:34.487Z,79.49
2022-10-21T20:44:02.299Z,79.32
2022-10-21T20:46:32.361Z,79.54
2022-10-21T20:48:58.976Z,79.64
2022-10-21T20:51:29.603Z,79.66
2022-10-21T20:53:58.902Z,79.60
2022-10-21T20:56:27.937Z,79.48
2022-10-21T20:58:54.654Z,79.24
2022-10-21T21:01:25.469Z,79.38
2022-10-21T21:03:54.055Z,79.01
2022-10-21T21:06:21.711Z,78.83
2022-10-21T21:09:08.194Z,78.77
2022-10-21T21:11:35.344Z,78.83
2022-10-21T21:14:02.062Z,78.51
2022-10-21T21:16:28.929Z,78.47
2022-10-21T21:18:58.486Z,78.30
2022-10-21T21:21:27.197Z,78.68
2022-10-21T21:23:54.438Z,79.09
2022-10-21T21:26:23.976Z,79.41
2022-10-21T21:28:51.090Z,79.70
2022-10-21T21:31:19.454Z,80.08
2022-10-21T21:33:46.368Z,80.72
2022-10-21T21:36:15.804Z,81.12
2022-10-21T21:38:42.682Z,81.43
2022-10-21T21:41:12.442Z,81.86
2022-10-21T21:43:41.476Z,81.79
2022-10-21T21:46:08.456Z,82.31
2022-10-21T21:48:35.286Z,82.59
2022-10-21T21:51:04.577Z,82.60
2022-10-21T21:53:31.627Z,82.70
2022-10-21T21:56:03.417Z,83.20
2022-10-21T21:58:30.502Z,83.28
2022-10-21T22:00:57.345Z,83.43
2022-10-21T22:03:24.027Z,83.06
2022-10-21T22:05:50.745Z,83.21
2022-10-21T22:08:17.381Z,83.38
2022-10-21T22:10:43.992Z,83.13
2022-10-21T22:13:12.683Z,82.97
2022-10-21T22:15:54.681Z,82.98
2022-10-21T22:18:21.425Z,82.99
2022-10-21T22:20:47.944Z,83.00
2022-10-21T22:23:14.494Z,82.99
2022-10-21T22:25:41.073Z,83.26
2022-10-21T22:28:07.752Z,82.78
2022-10-21T22:30:34.353Z,83.20
2022-10-21T22:33:01.002Z,82.42
2022-10-21T22:35:28.225Z,82.29
2022-10-21T22:37:56.211Z,82.65
2022-10-21T22:40:22.842Z,82.74
2022-10-21T22:42:49.496Z,82.58
2022-10-21T22:45:16.077Z,82.82
2022-10-21T22:47:42.764Z,82.50
2022-10-21T22:50:09.653Z,83.24
2022-10-21T22:52:36.216Z,83.29
2022-10-21T22:55:02.786Z,83.02
2022-10-21T22:57:29.401Z,82.91
2022-10-21T22:59:55.885Z,83.21
2022-10-21T23:02:25.129Z,82.94
2022-10-21T23:04:51.666Z,83.28
2022-10-21T23:07:18.240Z,83.00
2022-10-21T23:09:44.897Z,83.00
2022-10-21T23:12:11.525Z,82.95
2022-10-21T23:14:38.133Z,82.71
2022-10-21T23:17:04.759Z,83.01
2022-10-21T23:19:31.428Z,82.79
2022-10-21T23:22:00.083Z,82.52
2022-10-21T23:24:26.646Z,82.29
2022-10-21T23:26:57.526Z,82.56
2022-10-21T23:29:25.886Z,82.47
2022-10-21T23:31:52.470Z,82.16
2022-10-21T23:34:19.097Z,82.19
2022-10-21T23:36:45.691Z,82.14
2022-10-21T23:39:12.437Z,82.03
2022-10-21T23:41:38.985Z,82.06
2022-10-21T23:44:05.651Z,82.22
2022-10-21T23:46:32.253Z,82.41
2022-10-21T23:48:59.235Z,82.14
2022-10-21T23:51:29.019Z,82.64
2022-10-21T23:53:55.749Z,82.13
2022-10-21T23:56:22.328Z,82.36
2022-10-21T23:58:48.948Z,82.03
